Time;durP1;ratioP1;P1;durP2;ratioP2;P2;SDS_P1;SDS_P2;PMS_P1;PMS_P2;Temp;Humidity;BMP_temperature;BMP_pressure;BME280_temperature;BME280_humidity;BME280_pressure;Samples;Min_cycle;Max_cycle;Signal;HPM_P1;HPM_P2
2022/03/12 00:02:16;;;;;;;53.20;23.70;;;;;;;-0.60;41.28;100673.37;233414;1220;139260;-60
2022/03/12 00:07:20;;;;;;;55.30;24.00;;;;;;;-0.64;41.41;100670.38;233059;1222;140055;-61
2022/03/12 00:12:24;;;;;;;55.30;25.50;;;;;;;-0.67;41.53;100672.09;233318;1222;139406;-61
2022/03/12 00:17:29;;;;;;;57.80;25.50;;;;;;;-0.69;41.57;100675.20;233312;1221;139401;-60
2022/03/12 00:22:32;;;;;;;58.90;25.30;;;;;;;-0.70;41.55;100671.36;233157;1220;139302;-60
2022/03/12 00:27:36;;;;;;;61.60;27.00;;;;;;;-0.72;41.80;100665.23;233297;1222;139210;-61
2022/03/12 00:32:39;;;;;;;58.80;24.90;;;;;;;-0.73;41.82;100664.36;233367;1220;139648;-59
2022/03/12 00:37:43;;;;;;;53.70;25.20;;;;;;;-0.74;41.82;100659.82;233364;1220;139890;-59
2022/03/12 00:42:47;;;;;;;56.60;25.70;;;;;;;-0.80;42.01;100662.02;233706;1221;140321;-60
2022/03/12 00:47:50;;;;;;;59.70;26.90;;;;;;;-0.86;41.95;100663.54;233304;1220;140328;-60
2022/03/12 00:52:53;;;;;;;61.00;26.80;;;;;;;-0.95;42.23;100663.79;233386;1221;139576;-60
2022/03/12 00:57:57;;;;;;;62.40;26.70;;;;;;;-1.00;42.33;100665.13;232949;1220;139671;-58
2022/03/12 01:03:01;;;;;;;58.60;27.60;;;;;;;-1.05;42.48;100660.02;233482;1220;139400;-61
2022/03/12 01:08:05;;;;;;;64.10;27.60;;;;;;;-1.10;42.67;100658.75;233524;1221;140048;-61
2022/03/12 01:13:08;;;;;;;63.60;26.70;;;;;;;-1.14;42.88;100656.61;233648;1221;139084;-61
2022/03/12 01:18:17;;;;;;;58.30;27.10;;;;;;;-1.22;42.81;100653.21;232620;1220;141934;-60
2022/03/12 01:23:25;;;;;;;59.40;27.70;;;;;;;-1.29;42.87;100658.70;233545;1220;139315;-60
2022/03/12 01:28:28;;;;;;;71.10;27.80;;;;;;;-1.33;43.17;100659.69;233324;1221;139640;-59
2022/03/12 01:33:30;;;;;;;66.70;29.10;;;;;;;-1.35;43.28;100659.48;233206;1221;138706;-61
2022/03/12 01:38:48;;;;;;;65.70;28.00;;;;;;;-1.38;43.36;100661.36;233432;1220;139112;-58
2022/03/12 01:43:57;;;;;;;65.00;27.70;;;;;;;-1.44;43.76;100657.47;233531;1220;139952;-59
2022/03/12 01:49:05;;;;;;;64.50;28.30;;;;;;;-1.46;44.03;100654.48;233457;1220;139346;-59
2022/03/12 01:54:09;;;;;;;65.20;28.70;;;;;;;-1.46;44.04;100649.59;233518;1220;151694;-59
2022/03/12 01:59:12;;;;;;;63.70;28.90;;;;;;;-1.49;43.88;100640.70;233292;1220;139347;-59
2022/03/12 02:04:16;;;;;;;76.10;30.80;;;;;;;-1.49;44.06;100638.61;233406;1221;139348;-60
2022/03/12 02:09:20;;;;;;;64.40;28.40;;;;;;;-1.53;44.03;100631.59;233508;1221;140243;-59
2022/03/12 02:14:27;;;;;;;61.90;28.40;;;;;;;-1.58;44.28;100625.96;233487;1220;139217;-59
2022/03/12 02:19:32;;;;;;;69.80;30.40;;;;;;;-1.62;44.42;100622.77;233398;1221;139507;-61
2022/03/12 02:24:37;;;;;;;68.20;31.50;;;;;;;-1.63;44.53;100618.76;233620;1221;139059;-61
2022/03/12 02:29:41;;;;;;;69.80;31.40;;;;;;;-1.66;44.59;100624.11;232650;1220;139630;-60
2022/03/12 02:34:50;;;;;;;75.40;31.80;;;;;;;-1.69;44.77;100629.48;233435;1220;139179;-60
2022/03/12 02:39:52;;;;;;;74.40;31.60;;;;;;;-1.68;44.98;100621.83;233550;1221;139237;-60
2022/03/12 02:44:58;;;;;;;71.70;30.50;;;;;;;-1.64;44.70;100622.75;233331;1220;138913;-60
2022/03/12 02:50:07;;;;;;;67.50;30.00;;;;;;;-1.61;44.64;100618.79;232643;1220;140402;-61
2022/03/12 02:55:24;;;;;;;65.30;29.30;;;;;;;-1.59;44.62;100615.15;232437;1220;139815;-61
2022/03/12 03:00:28;;;;;;;67.90;31.50;;;;;;;-1.61;44.72;100616.52;233346;1220;140308;-61
2022/03/12 03:05:44;;;;;;;70.60;31.30;;;;;;;-1.63;44.72;100615.80;233404;1221;139829;-61
2022/03/12 03:10:52;;;;;;;69.40;31.70;;;;;;;-1.62;44.73;100611.47;233471;1220;139695;-60
2022/03/12 03:15:59;;;;;;;71.50;31.20;;;;;;;-1.61;44.64;100610.95;233207;1220;139651;-61
2022/03/12 03:21:06;;;;;;;63.80;30.00;;;;;;;-1.60;44.68;100606.27;232852;1220;140491;-59
2022/03/12 03:26:09;;;;;;;71.30;30.20;;;;;;;-1.58;44.69;100603.33;233264;1220;140036;-60
2022/03/12 03:31:12;;;;;;;66.70;30.80;;;;;;;-1.57;44.52;100607.52;233490;1220;139343;-59
2022/03/12 03:36:16;;;;;;;64.60;29.00;;;;;;;-1.59;44.57;100606.45;233414;1221;139872;-60
2022/03/12 03:41:19;;;;;;;67.70;29.60;;;;;;;-1.62;44.65;100606.77;233400;1221;139997;-60
2022/03/12 03:46:23;;;;;;;58.30;28.60;;;;;;;-1.68;44.66;100602.35;233494;1220;139587;-59
2022/03/12 03:51:26;;;;;;;63.70;28.50;;;;;;;-1.71;44.76;100596.39;233103;1221;141056;-59
2022/03/12 03:56:29;;;;;;;62.70;28.90;;;;;;;-1.75;44.81;100592.52;233397;1220;139263;-59
2022/03/12 04:01:32;;;;;;;69.20;29.50;;;;;;;-1.79;44.84;100595.93;233605;1220;139557;-59
2022/03/12 04:06:38;;;;;;;64.40;29.70;;;;;;;-1.84;45.08;100592.23;233521;1221;140859;-60
2022/03/12 04:11:42;;;;;;;61.30;28.00;;;;;;;-1.92;45.00;100598.89;233147;1221;139360;-58
2022/03/12 04:16:45;;;;;;;65.60;27.10;;;;;;;-1.95;45.23;100605.81;233316;1221;140489;-60
2022/03/12 04:21:48;;;;;;;70.80;30.20;;;;;;;-1.92;45.28;100604.10;233368;1220;140009;-59
2022/03/12 04:26:52;;;;;;;77.80;31.30;;;;;;;-1.87;45.11;100607.14;233439;1220;139147;-59
2022/03/12 04:31:55;;;;;;;73.90;30.20;;;;;;;-1.83;45.11;100601.63;233389;1220;139461;-58
2022/03/12 04:36:58;;;;;;;83.00;32.80;;;;;;;-1.80;45.07;100602.34;233515;1220;139241;-58
2022/03/12 04:42:01;;;;;;;75.80;31.60;;;;;;;-1.81;44.94;100598.52;233458;1221;140073;-60
2022/03/12 04:47:08;;;;;;;77.10;31.60;;;;;;;-1.87;44.85;100590.10;233083;1220;138904;-61
2022/03/12 04:52:12;;;;;;;73.50;31.30;;;;;;;-1.89;44.88;100595.80;233313;1220;140129;-61
2022/03/12 04:57:15;;;;;;;76.90;32.00;;;;;;;-1.94;45.11;100597.83;233109;1221;139353;-60
2022/03/12 05:02:18;;;;;;;76.40;31.30;;;;;;;-2.00;45.21;100600.87;233341;1220;139321;-60
2022/03/12 05:07:23;;;;;;;73.50;31.40;;;;;;;-2.02;45.36;100598.92;233598;1220;139354;-60
2022/03/12 05:12:26;;;;;;;77.90;33.40;;;;;;;-2.08;45.35;100604.06;231720;1219;138993;-59
2022/03/12 05:17:31;;;;;;;74.60;31.40;;;;;;;-2.10;45.65;100603.17;233441;1220;139147;-63
2022/03/12 05:22:34;;;;;;;71.50;32.00;;;;;;;-2.12;45.80;100604.52;233453;1220;139142;-60
2022/03/12 05:27:37;;;;;;;80.50;33.50;;;;;;;-2.16;45.97;100610.04;233502;1218;139170;-60
2022/03/12 05:32:41;;;;;;;72.50;31.80;;;;;;;-2.21;46.01;100603.88;233298;1222;139301;-61
2022/03/12 05:37:45;;;;;;;72.10;31.00;;;;;;;-2.20;46.33;100602.15;233454;1220;139220;-60
2022/03/12 05:42:49;;;;;;;61.20;28.20;;;;;;;-2.15;46.36;100599.79;233587;1220;142256;-62
2022/03/12 05:47:52;;;;;;;65.00;27.60;;;;;;;-2.08;46.43;100598.14;232658;1221;138982;-60
2022/03/12 05:52:55;;;;;;;57.80;27.10;;;;;;;-2.01;46.36;100594.77;232982;1220;139772;-61
2022/03/12 05:57:58;;;;;;;61.90;27.10;;;;;;;-1.95;46.31;100589.98;232397;1222;139945;-62
2022/03/12 06:03:01;;;;;;;60.20;26.80;;;;;;;-1.91;46.47;100586.91;233408;1221;139594;-63
2022/03/12 06:08:06;;;;;;;63.50;30.50;;;;;;;-1.87;46.53;100580.87;233420;1219;138920;-60
2022/03/12 06:13:10;;;;;;;61.60;28.90;;;;;;;-1.82;46.68;100576.59;233565;1220;139264;-60
2022/03/12 06:18:13;;;;;;;58.70;27.90;;;;;;;-1.77;46.63;100571.61;233063;1220;139263;-55
2022/03/12 06:23:16;;;;;;;60.00;26.50;;;;;;;-1.70;46.63;100573.80;233160;1221;139639;-60
2022/03/12 06:28:20;;;;;;;58.10;27.10;;;;;;;-1.61;46.63;100574.08;233463;1221;139739;-60
2022/03/12 06:33:26;;;;;;;57.80;26.40;;;;;;;-1.52;46.68;100584.45;233371;1218;139539;-65
2022/03/12 06:38:30;;;;;;;55.80;25.30;;;;;;;-1.42;46.56;100586.82;233316;1221;139464;-63
2022/03/12 06:43:34;;;;;;;48.30;24.80;;;;;;;-1.30;46.69;100586.79;233511;1220;139277;-59
2022/03/12 06:48:38;;;;;;;139.60;77.50;;;;;;;-1.17;46.59;100589.72;233323;1220;140925;-58
2022/03/12 06:53:41;;;;;;;81.70;43.50;;;;;;;-0.98;46.97;100586.59;233292;1222;139902;-60
2022/03/12 06:58:44;;;;;;;69.80;28.70;;;;;;;-0.65;47.17;100580.95;233187;1222;139975;-60
2022/03/12 07:03:47;;;;;;;63.30;27.00;;;;;;;-0.49;46.44;100574.98;233033;1221;139007;-61
2022/03/12 07:08:51;;;;;;;60.60;27.60;;;;;;;-0.37;46.25;100575.77;233259;1221;139014;-61
2022/03/12 07:13:54;;;;;;;212.40;110.30;;;;;;;-0.21;46.48;100578.50;233350;1220;139741;-61
2022/03/12 07:18:57;;;;;;;67.00;29.70;;;;;;;0.09;46.51;100573.79;233402;1222;139615;-61
2022/03/12 07:24:00;;;;;;;52.90;24.50;;;;;;;0.29;45.90;100574.07;232752;1220;138837;-61
2022/03/12 07:29:03;;;;;;;59.80;26.20;;;;;;;0.39;45.51;100580.05;233320;1221;138895;-59
2022/03/12 07:34:07;;;;;;;59.20;25.00;;;;;;;0.50;45.38;100588.12;232815;1221;139363;-60
2022/03/12 07:39:10;;;;;;;57.80;25.60;;;;;;;0.61;45.16;100590.77;232939;1221;139500;-61
2022/03/12 07:44:13;;;;;;;567.50;310.40;;;;;;;0.73;45.03;100591.68;232663;1221;139874;-60
2022/03/12 07:49:16;;;;;;;79.00;37.50;;;;;;;0.96;45.30;100590.87;233402;1221;139454;-61
2022/03/12 07:54:19;;;;;;;43.90;20.10;;;;;;;1.13;44.44;100586.52;233267;1221;138974;-61
2022/03/12 07:59:22;;;;;;;47.80;22.70;;;;;;;1.25;44.00;100584.42;233382;1221;138948;-60
2022/03/12 08:04:26;;;;;;;48.50;21.80;;;;;;;1.41;43.94;100582.52;233327;1221;139269;-60
2022/03/12 08:09:31;;;;;;;48.60;23.20;;;;;;;1.54;43.87;100577.64;232906;1221;138741;-59
2022/03/12 08:14:34;;;;;;;47.30;22.30;;;;;;;1.63;43.76;100570.09;233320;1220;139414;-61
2022/03/12 08:19:38;;;;;;;46.10;20.50;;;;;;;1.74;43.80;100568.52;233335;1220;140611;-61
2022/03/12 08:24:41;;;;;;;39.20;18.00;;;;;;;1.83;43.28;100569.90;233274;1221;138747;-59
2022/03/12 08:29:44;;;;;;;141.40;78.40;;;;;;;1.97;43.30;100564.96;233374;1221;138744;-59
2022/03/12 08:34:47;;;;;;;53.40;24.60;;;;;;;2.21;43.49;100564.54;233329;1221;139854;-60
2022/03/12 08:39:51;;;;;;;39.80;19.10;;;;;;;2.35;42.98;100560.45;233395;1221;138639;-61
2022/03/12 08:44:55;;;;;;;34.00;15.50;;;;;;;2.44;42.79;100555.70;233345;1221;138910;-62
2022/03/12 08:50:00;;;;;;;31.10;15.10;;;;;;;2.54;42.71;100557.57;233372;1220;139183;-62
2022/03/12 08:55:05;;;;;;;27.30;11.70;;;;;;;2.72;42.22;100562.91;233468;1221;139499;-61
2022/03/12 09:00:11;;;;;;;27.10;13.90;;;;;;;2.92;41.59;100565.95;233255;1221;139142;-63
2022/03/12 09:05:14;;;;;;;27.80;14.60;;;;;;;3.07;41.35;100567.25;233174;1222;139021;-61
2022/03/12 09:10:20;;;;;;;30.20;15.80;;;;;;;3.28;41.46;100566.40;233325;1220;139432;-62
2022/03/12 09:15:24;;;;;;;26.50;12.80;;;;;;;3.48;40.78;100561.33;233292;1221;139636;-63
2022/03/12 09:20:28;;;;;;;28.00;13.00;;;;;;;3.60;40.46;100554.39;233264;1221;140333;-60
2022/03/12 09:25:31;;;;;;;33.00;12.70;;;;;;;3.71;40.14;100557.42;233479;1220;138568;-62
2022/03/12 09:30:34;;;;;;;30.10;14.80;;;;;;;3.83;39.87;100547.14;233255;1221;139139;-60
2022/03/12 09:35:37;;;;;;;27.10;12.40;;;;;;;3.95;39.75;100550.52;233391;1221;139039;-63
2022/03/12 09:40:40;;;;;;;34.00;14.00;;;;;;;4.09;39.50;100539.65;233323;1221;140018;-64
2022/03/12 09:45:44;;;;;;;27.60;14.20;;;;;;;4.23;39.49;100534.75;233245;1221;139073;-62
2022/03/12 09:50:51;;;;;;;38.10;14.50;;;;;;;4.41;39.32;100529.42;233385;1221;141142;-61
2022/03/12 09:55:54;;;;;;;32.00;13.50;;;;;;;4.61;39.18;100518.08;233410;1221;138826;-65
2022/03/12 10:00:57;;;;;;;24.80;13.00;;;;;;;4.78;38.39;100508.88;233541;1220;140520;-64
2022/03/12 10:06:06;;;;;;;23.70;12.10;;;;;;;4.90;38.02;100501.32;233461;1221;139277;-65
2022/03/12 10:11:09;;;;;;;26.40;10.90;;;;;;;5.02;38.13;100491.11;233389;1221;139015;-63
2022/03/12 10:16:13;;;;;;;24.40;11.20;;;;;;;5.22;38.69;100491.48;233445;1220;138881;-63
2022/03/12 10:21:16;;;;;;;77.70;35.60;;;;;;;5.52;38.95;100491.65;233427;1221;139131;-61
2022/03/12 10:26:19;;;;;;;78.80;27.90;;;;;;;5.80;37.91;100482.15;233488;1220;138910;-59
2022/03/12 10:31:22;;;;;;;238.90;121.00;;;;;;;6.01;37.83;100476.13;233575;1221;139018;-61
2022/03/12 10:36:25;;;;;;;27.10;13.20;;;;;;;6.36;37.56;100457.78;233341;1222;139750;-61
2022/03/12 10:41:30;;;;;;;23.10;11.40;;;;;;;6.66;37.08;100452.17;233283;1221;138933;-61
2022/03/12 10:46:35;;;;;;;25.10;12.20;;;;;;;6.91;36.65;100445.05;233373;1222;139198;-61
2022/03/12 10:51:39;;;;;;;28.20;12.60;;;;;;;7.16;36.54;100440.52;233180;1222;139970;-60
2022/03/12 10:56:46;;;;;;;21.50;10.10;;;;;;;7.38;36.09;100435.91;233285;1221;139513;-60
2022/03/12 11:01:51;;;;;;;25.10;10.20;;;;;;;7.49;35.10;100427.32;233409;1221;139387;-62
2022/03/12 11:06:57;;;;;;;368.70;212.50;;;;;;;7.64;34.91;100419.33;233462;1221;138560;-60
2022/03/12 11:12:03;;;;;;;38.30;19.00;;;;;;;7.80;35.02;100417.25;233103;1220;140408;-62
2022/03/12 11:17:06;;;;;;;20.30;10.80;;;;;;;7.81;34.09;100403.98;232887;1221;139036;-61
2022/03/12 11:22:13;;;;;;;323.50;179.30;;;;;;;7.88;34.38;100402.73;232731;1222;139172;-61
2022/03/12 11:27:36;;;;;;;25.40;13.60;;;;;;;7.96;34.36;100400.03;232916;1221;139462;-61
2022/03/12 11:32:44;;;;;;;16.90;9.10;;;;;;;8.05;33.74;100390.05;232853;1222;139312;-60
2022/03/12 11:37:47;;;;;;;20.70;10.00;;;;;;;8.07;33.15;100383.24;232806;1221;139773;-61
2022/03/12 11:42:51;;;;;;;20.10;10.00;;;;;;;8.12;33.00;100374.45;232951;1221;139494;-62
2022/03/12 11:47:54;;;;;;;17.00;8.60;;;;;;;8.24;32.94;100370.35;232767;1221;138902;-62
2022/03/12 11:52:58;;;;;;;208.60;128.30;;;;;;;8.45;33.20;100367.25;232968;1221;138939;-60
2022/03/12 11:58:03;;;;;;;22.60;9.20;;;;;;;9.20;34.19;100359.42;232838;1221;140310;-61
2022/03/12 12:03:07;;;;;;;17.50;9.00;;;;;;;9.52;32.63;100351.39;232894;1221;139412;-60
2022/03/12 12:08:12;;;;;;;18.40;8.40;;;;;;;9.67;32.17;100344.27;232833;1222;138873;-60
2022/03/12 12:13:18;;;;;;;15.90;7.20;;;;;;;9.90;32.11;100340.59;232795;1223;139591;-61
2022/03/12 12:18:22;;;;;;;13.50;6.00;;;;;;;10.14;31.71;100334.99;232798;1222;139003;-58
2022/03/12 12:23:25;;;;;;;12.00;6.00;;;;;;;10.34;31.49;100328.92;232799;1221;138787;-59
2022/03/12 12:28:28;;;;;;;11.80;5.50;;;;;;;10.51;30.80;100320.08;232855;1221;139545;-62
2022/03/12 12:33:32;;;;;;;14.30;9.00;;;;;;;10.67;30.35;100315.87;232978;1220;140549;-61
2022/03/12 12:38:36;;;;;;;6.40;3.60;;;;;;;10.82;30.03;100307.23;233334;1220;139352;-61
2022/03/12 12:43:44;;;;;;;7.20;4.00;;;;;;;10.87;28.84;100302.94;233422;1220;139762;-62
2022/03/12 12:48:49;;;;;;;66.60;40.80;;;;;;;10.79;29.14;100300.63;233392;1221;140172;-61
2022/03/12 12:53:54;;;;;;;9.80;5.70;;;;;;;10.86;29.18;100303.50;232540;1220;139031;-63
2022/03/12 12:59:06;;;;;;;8.30;4.40;;;;;;;10.98;28.63;100301.58;232432;1220;139064;-63
2022/03/12 13:04:12;;;;;;;9.40;5.20;;;;;;;11.03;27.88;100293.23;233399;1220;139894;-62
2022/03/12 13:09:54;;;;;;;9.60;4.50;;;;;;;11.09;27.82;100296.66;233455;1218;139164;-66
2022/03/12 13:14:57;;;;;;;10.30;5.50;;;;;;;11.24;27.99;100291.04;233277;1220;140903;-60
2022/03/12 13:20:01;;;;;;;10.40;5.80;;;;;;;11.37;28.18;100286.36;233230;1222;138767;-63
2022/03/12 13:25:05;;;;;;;12.70;6.10;;;;;;;11.47;28.05;100285.91;233441;1220;140296;-61
2022/03/12 13:30:18;;;;;;;9.20;5.50;;;;;;;11.52;27.91;100282.13;233402;1220;138654;-60
2022/03/12 13:35:28;;;;;;;10.80;6.40;;;;;;;11.63;28.25;100283.78;233383;1221;138605;-60
2022/03/12 13:40:32;;;;;;;9.60;5.70;;;;;;;11.80;28.19;100274.80;233382;1220;141418;-59
2022/03/12 13:45:35;;;;;;;9.70;5.70;;;;;;;12.02;28.12;100264.70;233339;1220;138679;-59
2022/03/12 13:50:38;;;;;;;9.80;5.10;;;;;;;12.02;27.91;100260.94;233293;1221;138951;-59
2022/03/12 13:55:44;;;;;;;8.80;4.90;;;;;;;11.71;27.09;100250.69;233571;1221;139332;-60
2022/03/12 14:00:48;;;;;;;10.10;5.20;;;;;;;11.32;27.39;100245.19;233248;1221;139550;-59
2022/03/12 14:05:51;;;;;;;13.10;6.40;;;;;;;10.99;27.17;100245.06;233358;1221;139348;-59
2022/03/12 14:10:54;;;;;;;367.30;246.70;;;;;;;10.70;27.98;100241.54;233128;1220;140896;-60
2022/03/12 14:15:57;;;;;;;17.40;9.00;;;;;;;10.53;28.39;100237.14;233181;1222;139597;-60
2022/03/12 14:21:01;;;;;;;10.40;5.60;;;;;;;10.28;27.80;100231.96;233347;1220;138773;-62
2022/03/12 14:26:04;;;;;;;12.10;6.00;;;;;;;10.02;27.69;100224.17;233335;1220;139050;-60
2022/03/12 14:31:07;;;;;;;10.70;5.50;;;;;;;9.78;27.23;100222.27;233482;1220;139346;-58
2022/03/12 14:36:10;;;;;;;9.80;4.70;;;;;;;9.57;27.33;100218.84;233352;1220;139140;-59
2022/03/12 14:41:13;;;;;;;8.40;4.90;;;;;;;9.38;27.21;100220.66;233378;1220;139170;-59
2022/03/12 14:46:16;;;;;;;9.90;4.80;;;;;;;9.23;27.47;100216.95;233370;1220;138810;-59
2022/03/12 14:51:19;;;;;;;7.10;4.50;;;;;;;9.11;27.50;100215.64;233049;1220;138289;-59
2022/03/12 14:56:23;;;;;;;8.90;5.10;;;;;;;9.01;27.49;100214.23;233459;1220;138600;-59
2022/03/12 15:01:29;;;;;;;436.00;307.10;;;;;;;8.94;27.85;100212.02;233536;1220;138296;-58
2022/03/12 15:06:36;;;;;;;22.80;14.30;;;;;;;8.90;28.04;100212.86;233296;1221;139710;-59
2022/03/12 15:11:40;;;;;;;8.90;5.30;;;;;;;8.85;27.73;100209.69;233377;1220;139207;-58
2022/03/12 15:16:48;;;;;;;9.30;5.20;;;;;;;8.80;27.61;100207.93;233120;1222;140359;-58
2022/03/12 15:21:53;;;;;;;16.90;9.00;;;;;;;8.69;27.67;100202.64;233370;1221;138772;-59
2022/03/12 15:27:06;;;;;;;10.20;4.90;;;;;;;8.63;27.65;100200.73;233346;1220;138562;-59
2022/03/12 15:32:16;;;;;;;9.20;4.90;;;;;;;8.55;27.84;100196.42;232968;1222;138991;-59
2022/03/12 15:37:34;;;;;;;19.30;9.10;;;;;;;8.47;28.14;100192.98;233424;1220;138908;-59
2022/03/12 15:42:40;;;;;;;13.70;5.50;;;;;;;8.44;27.87;100192.40;233158;1222;139333;-60
2022/03/12 15:47:44;;;;;;;;;;;;;;;8.36;27.92;100190.88;233409;1220;138955;-62
2022/03/12 15:52:49;;;;;;;51.50;27.60;;;;;;;8.28;28.37;100188.81;233483;1220;125064;-60
2022/03/12 15:57:53;;;;;;;16.50;6.30;;;;;;;8.25;28.25;100190.02;233438;1221;138474;-58
2022/03/12 16:02:56;;;;;;;149.50;63.50;;;;;;;8.16;28.47;100190.13;233112;1220;138705;-59
2022/03/12 16:08:01;;;;;;;22.60;9.90;;;;;;;8.11;28.41;100192.77;233108;1222;140208;-61
2022/03/12 16:13:04;;;;;;;11.40;6.00;;;;;;;7.97;28.49;100192.52;233588;1220;139231;-58
2022/03/12 16:18:13;;;;;;;11.60;6.80;;;;;;;7.85;28.29;100195.58;233378;1220;139485;-60
2022/03/12 16:23:17;;;;;;;12.90;5.80;;;;;;;7.72;28.64;100195.62;233414;1220;138807;-59
2022/03/12 16:28:21;;;;;;;16.60;7.40;;;;;;;7.61;28.40;100198.63;233082;1220;140369;-60
2022/03/12 16:33:27;;;;;;;14.50;7.00;;;;;;;7.52;28.61;100193.27;233084;1222;139042;-58
2022/03/12 16:38:34;;;;;;;13.70;6.60;;;;;;;7.40;28.40;100196.98;233369;1220;139008;-59
2022/03/12 16:43:38;;;;;;;54.20;29.60;;;;;;;7.30;28.97;100193.21;233591;1219;138870;-58
2022/03/12 16:48:47;;;;;;;18.60;9.80;;;;;;;7.34;28.89;100188.85;233385;1220;138753;-59
2022/03/12 16:53:50;;;;;;;18.60;9.60;;;;;;;7.22;28.73;100183.39;233289;1221;138736;-60
2022/03/12 16:58:53;;;;;;;23.80;10.40;;;;;;;7.07;28.88;100186.50;233393;1220;139522;-60
2022/03/12 17:03:56;;;;;;;51.80;33.50;;;;;;;6.90;28.99;100181.52;233164;1222;139159;-59
2022/03/12 17:09:00;;;;;;;63.30;32.30;;;;;;;6.85;29.55;100180.06;233045;1221;140300;-59
2022/03/12 17:14:04;;;;;;;47.10;20.50;;;;;;;6.80;29.08;100178.45;233246;1220;138942;-59
2022/03/12 17:19:12;;;;;;;50.80;21.50;;;;;;;6.63;28.86;100179.98;233431;1220;139361;-58
2022/03/12 17:24:17;;;;;;;51.80;21.70;;;;;;;6.45;29.32;100178.17;233252;1220;139208;-58
2022/03/12 17:29:21;;;;;;;54.10;24.00;;;;;;;6.28;29.10;100184.10;233305;1220;140097;-59
2022/03/12 17:34:25;;;;;;;52.40;27.20;;;;;;;6.13;29.30;100179.90;233388;1220;140663;-58
2022/03/12 17:39:31;;;;;;;55.00;28.60;;;;;;;5.98;29.67;100176.58;233375;1220;139300;-59
2022/03/12 17:44:34;;;;;;;62.10;29.40;;;;;;;5.80;29.60;100178.04;233447;1218;138675;-59
2022/03/12 17:49:38;;;;;;;59.10;29.60;;;;;;;5.62;29.83;100180.59;233417;1220;139079;-58
2022/03/12 17:54:41;;;;;;;68.80;29.10;;;;;;;5.45;29.90;100181.14;233348;1220;139397;-60
2022/03/12 17:59:45;;;;;;;57.80;27.20;;;;;;;5.33;30.28;100180.88;233347;1220;138929;-59
2022/03/12 18:04:48;;;;;;;59.40;28.20;;;;;;;5.23;30.64;100177.77;233306;1220;139591;-59
2022/03/12 18:09:51;;;;;;;57.90;26.80;;;;;;;5.12;30.74;100178.89;233322;1220;139110;-59
2022/03/12 18:14:54;;;;;;;64.30;29.40;;;;;;;4.99;30.91;100182.33;233340;1220;139641;-57
2022/03/12 18:19:58;;;;;;;63.50;28.50;;;;;;;4.87;31.19;100180.83;233320;1219;138698;-61
2022/03/12 18:25:00;;;;;;;63.30;29.70;;;;;;;4.77;31.32;100184.72;233101;1222;139462;-61
2022/03/12 18:30:04;;;;;;;64.30;31.30;;;;;;;4.66;31.44;100181.23;233206;1219;138426;-57
2022/03/12 18:35:11;;;;;;;70.50;32.00;;;;;;;4.54;31.83;100185.51;233172;1220;139073;-59
2022/03/12 18:40:20;;;;;;;75.90;32.20;;;;;;;4.43;32.12;100186.95;233317;1220;139858;-59
2022/03/12 18:45:23;;;;;;;64.20;30.50;;;;;;;4.33;32.47;100187.30;233333;1221;138964;-60
2022/03/12 18:50:28;;;;;;;61.90;29.50;;;;;;;4.26;32.23;100187.26;233300;1220;139515;-59
2022/03/12 18:55:32;;;;;;;64.60;30.70;;;;;;;4.22;32.22;100184.69;233411;1220;138803;-60
2022/03/12 19:00:35;;;;;;;68.30;29.30;;;;;;;4.18;32.19;100182.65;233263;1220;139344;-59
2022/03/12 19:05:39;;;;;;;63.00;27.60;;;;;;;4.11;32.52;100185.77;233310;1221;139120;-59
2022/03/12 19:10:43;;;;;;;69.20;28.70;;;;;;;4.04;32.93;100187.27;233420;1219;138860;-59
2022/03/12 19:15:46;;;;;;;67.80;28.30;;;;;;;3.94;33.33;100190.07;233316;1220;140329;-58
2022/03/12 19:20:50;;;;;;;60.80;28.80;;;;;;;3.85;33.82;100190.59;233441;1221;139493;-58
2022/03/12 19:25:54;;;;;;;68.60;29.70;;;;;;;3.76;34.12;100196.16;233204;1220;139021;-58
2022/03/12 19:31:01;;;;;;;59.80;28.30;;;;;;;3.65;34.22;100191.61;233412;1220;139860;-59
2022/03/12 19:36:09;;;;;;;55.60;26.90;;;;;;;3.51;34.53;100185.84;233402;1220;139535;-59
2022/03/12 19:41:17;;;;;;;60.40;28.00;;;;;;;3.40;34.66;100182.85;233300;1220;138987;-59
2022/03/12 19:46:21;;;;;;;62.80;29.10;;;;;;;3.29;35.05;100194.23;233419;1221;139112;-59
2022/03/12 19:51:25;;;;;;;70.00;33.30;;;;;;;3.15;35.52;100198.80;233116;1220;139580;-59
2022/03/12 19:56:28;;;;;;;68.40;32.10;;;;;;;3.03;35.74;100197.54;233465;1221;139276;-59
2022/03/12 20:01:31;;;;;;;73.70;34.10;;;;;;;2.94;35.85;100202.39;233530;1220;139001;-58
2022/03/12 20:06:35;;;;;;;80.40;35.60;;;;;;;2.87;36.14;100206.34;233390;1220;141552;-60
2022/03/12 20:11:38;;;;;;;69.80;35.40;;;;;;;2.80;36.38;100202.91;233359;1221;139247;-59
2022/03/12 20:16:42;;;;;;;80.20;37.70;;;;;;;2.69;36.62;100196.55;233338;1221;139240;-59
2022/03/12 20:21:45;;;;;;;78.90;37.40;;;;;;;2.61;36.94;100197.17;233316;1221;139846;-59
2022/03/12 20:26:50;;;;;;;86.60;42.10;;;;;;;2.54;37.46;100192.69;233307;1220;138610;-60
2022/03/12 20:31:54;;;;;;;84.60;41.10;;;;;;;2.51;37.58;100181.52;233394;1220;139327;-59
2022/03/12 20:36:58;;;;;;;91.20;41.60;;;;;;;2.47;37.95;100184.88;233232;1220;139253;-57
2022/03/12 20:42:02;;;;;;;89.30;42.40;;;;;;;2.42;38.10;100184.95;233273;1222;139224;-60
2022/03/12 20:47:06;;;;;;;94.00;44.50;;;;;;;2.35;38.33;100181.33;232984;1220;139097;-57
2022/03/12 20:52:10;;;;;;;94.70;44.20;;;;;;;2.32;38.56;100181.72;233158;1220;138980;-58
2022/03/12 20:57:15;;;;;;;102.90;47.70;;;;;;;2.25;38.57;100185.12;232278;1220;139506;-59
2022/03/12 21:02:18;;;;;;;75.10;35.80;;;;;;;2.17;38.77;100185.88;232976;1220;139930;-58
2022/03/12 21:07:21;;;;;;;109.20;51.90;;;;;;;2.13;38.89;100176.13;233407;1221;139836;-59
2022/03/12 21:12:24;;;;;;;101.10;48.30;;;;;;;2.08;38.97;100172.48;233282;1220;139090;-60
2022/03/12 21:17:27;;;;;;;102.40;50.90;;;;;;;2.00;39.27;100173.27;233407;1220;139839;-59
2022/03/12 21:22:30;;;;;;;107.60;51.70;;;;;;;1.93;39.46;100175.06;233285;1222;139244;-59
2022/03/12 21:27:35;;;;;;;99.70;49.00;;;;;;;1.91;39.85;100168.44;233251;1222;139266;-59
2022/03/12 21:32:38;;;;;;;100.20;48.70;;;;;;;1.87;40.00;100174.77;233153;1220;139535;-59
2022/03/12 21:37:41;;;;;;;103.50;51.00;;;;;;;1.83;40.19;100179.19;233435;1222;139260;-59
2022/03/12 21:42:45;;;;;;;111.30;50.80;;;;;;;1.76;40.29;100177.67;233294;1222;139072;-62
2022/03/12 21:47:49;;;;;;;110.20;51.30;;;;;;;1.73;40.47;100170.35;233357;1222;139139;-59
2022/03/12 21:52:52;;;;;;;109.70;51.30;;;;;;;1.71;40.51;100168.42;233269;1221;139196;-59
2022/03/12 21:57:56;;;;;;;109.60;51.90;;;;;;;1.66;40.74;100164.10;233290;1221;139408;-59
2022/03/12 22:03:05;;;;;;;108.90;50.60;;;;;;;1.61;40.95;100165.35;233326;1221;139454;-60
2022/03/12 23:41:10;;;;;;;129.40;59.40;;;;;;;0.23;44.28;100157.98;231536;1232;138896;-60
2022/03/12 23:46:13;;;;;;;144.10;60.90;;;;;;;0.27;44.19;100157.28;232512;1223;140422;-61
2022/03/12 23:52:15;;;;;;;134.40;58.60;;;;;;;0.32;44.52;100157.27;232314;1224;138801;-61
2022/03/12 23:57:19;;;;;;;119.20;56.80;;;;;;;0.36;44.52;100148.88;232253;1224;139838;-61
